createdAt,value
2018-10-06T00:00:53.374Z,56.12
2018-10-06T00:03:22.370Z,56.30
2018-10-06T00:05:51.406Z,56.79
2018-10-06T00:08:20.432Z,56.42
2018-10-06T00:10:49.462Z,58.26
2018-10-06T00:13:18.542Z,58.51
2018-10-06T00:15:47.831Z,57.17
2018-10-06T00:18:16.854Z,58.22
2018-10-06T00:20:46.038Z,57.14
2018-10-06T00:23:15.130Z,58.01
2018-10-06T00:25:44.385Z,57.73
2018-10-06T00:28:14.352Z,56.80
2018-10-06T00:30:43.738Z,56.91
2018-10-06T00:33:12.727Z,58.48
2018-10-06T00:35:41.875Z,58.17
2018-10-06T00:38:10.944Z,57.90
2018-10-06T00:40:40.006Z,57.58
2018-10-06T00:43:09.006Z,57.95
2018-10-06T00:45:38.002Z,59.21
2018-10-06T00:48:07.413Z,59.60
2018-10-06T00:50:36.401Z,58.38
2018-10-06T00:53:05.684Z,58.22
2018-10-06T00:55:34.689Z,57.97
2018-10-06T00:58:03.705Z,57.71
2018-10-06T01:00:32.837Z,58.46
2018-10-06T01:03:02.033Z,58.03
2018-10-06T01:05:31.326Z,58.68
2018-10-06T01:08:00.325Z,59.65
2018-10-06T01:10:29.325Z,59.30
2018-10-06T01:12:58.818Z,59.42
2018-10-06T01:15:27.821Z,59.69
2018-10-06T01:17:56.811Z,60.36
2018-10-06T01:20:25.805Z,60.12
2018-10-06T01:22:54.858Z,59.04
2018-10-06T01:25:23.858Z,60.17
2018-10-06T01:27:53.417Z,61.28
2018-10-06T01:30:22.413Z,60.09
2018-10-06T01:32:51.434Z,59.14
2018-10-06T01:35:20.635Z,59.56
2018-10-06T01:37:49.865Z,60.34
2018-10-06T01:40:18.844Z,60.79
2018-10-06T01:42:47.960Z,59.39
2018-10-06T01:45:17.159Z,59.22
2018-10-06T01:47:46.358Z,59.47
2018-10-06T01:50:15.554Z,60.25
2018-10-06T01:52:44.559Z,59.12
2018-10-06T01:55:13.751Z,62.34
2018-10-06T01:57:42.817Z,62.19
2018-10-06T02:00:11.829Z,61.24
2018-10-06T02:02:40.850Z,59.71
2018-10-06T02:05:09.830Z,62.07
2018-10-06T02:07:39.039Z,60.42
2018-10-06T02:10:08.010Z,59.82
2018-10-06T02:12:37.051Z,61.12
2018-10-06T02:15:06.100Z,62.88
2018-10-06T02:17:35.152Z,61.24
2018-10-06T02:20:04.144Z,60.61
2018-10-06T02:22:33.153Z,60.02
2018-10-06T02:25:02.900Z,60.16
2018-10-06T02:27:31.905Z,61.43
2018-10-06T02:30:01.146Z,60.80
2018-10-06T02:32:30.251Z,60.75
2018-10-06T02:34:59.457Z,61.04
2018-10-06T02:37:28.835Z,60.48
2018-10-06T02:39:57.851Z,60.60
2018-10-06T02:42:26.939Z,60.46
2018-10-06T02:44:55.938Z,60.39
2018-10-06T02:47:24.956Z,61.19
2018-10-06T02:49:53.988Z,61.48
2018-10-06T02:52:22.971Z,60.69
2018-10-06T02:54:52.053Z,62.20
2018-10-06T02:57:21.059Z,61.80
2018-10-06T02:59:50.257Z,62.32
2018-10-06T03:02:19.275Z,61.71
2018-10-06T03:04:48.294Z,62.09
2018-10-06T03:07:17.314Z,61.56
2018-10-06T03:09:46.659Z,62.82
2018-10-06T03:12:15.698Z,62.12
2018-10-06T03:14:44.727Z,61.12
2018-10-06T03:17:13.746Z,61.77
2018-10-06T03:19:42.942Z,62.56
2018-10-06T03:22:12.174Z,61.72
2018-10-06T03:24:41.177Z,61.68
2018-10-06T03:27:10.409Z,62.34
2018-10-06T03:29:39.443Z,62.01
2018-10-06T03:32:08.417Z,62.07
2018-10-06T03:34:37.453Z,62.37
2018-10-06T03:37:06.439Z,62.30
2018-10-06T03:39:35.913Z,62.10
2018-10-06T03:42:05.129Z,62.58
2018-10-06T03:44:34.411Z,62.46
2018-10-06T03:47:03.395Z,62.78
2018-10-06T03:49:32.415Z,62.57
2018-10-06T03:52:01.414Z,65.33
2018-10-06T03:54:30.680Z,64.96
2018-10-06T03:56:59.940Z,63.69
2018-10-06T03:59:28.987Z,63.93
2018-10-06T04:01:57.965Z,62.37
2018-10-06T04:04:27.202Z,62.70
2018-10-06T04:06:56.590Z,63.08
2018-10-06T04:09:25.863Z,63.81
2018-10-06T04:11:54.867Z,64.07
2018-10-06T04:14:23.865Z,63.41
2018-10-06T04:16:52.870Z,63.33
2018-10-06T04:19:21.890Z,63.35
2018-10-06T04:21:50.980Z,62.84
2018-10-06T04:24:20.003Z,63.08
2018-10-06T04:26:49.023Z,62.75
2018-10-06T04:29:18.060Z,62.87
2018-10-06T04:31:47.608Z,63.75
2018-10-06T04:34:16.923Z,63.07
2018-10-06T04:36:45.936Z,64.86
2018-10-06T04:39:14.957Z,64.24
2018-10-06T04:41:44.030Z,63.57
2018-10-06T04:44:13.075Z,63.38
2018-10-06T04:46:42.706Z,63.04
2018-10-06T04:49:11.752Z,63.61
2018-10-06T04:51:40.765Z,63.39
2018-10-06T04:54:09.784Z,63.28
2018-10-06T04:56:38.939Z,64.99
2018-10-06T04:59:08.185Z,63.85
2018-10-06T05:01:37.428Z,63.23
2018-10-06T05:04:06.695Z,63.43
2018-10-06T05:06:35.784Z,63.47
2018-10-06T05:09:05.544Z,63.87
2018-10-06T05:11:34.624Z,63.50
2018-10-06T05:14:03.656Z,63.28
2018-10-06T05:16:33.028Z,64.65
2018-10-06T05:19:02.038Z,64.53
2018-10-06T05:21:31.060Z,64.26
2018-10-06T05:24:00.365Z,63.64
2018-10-06T05:26:29.667Z,63.87
2018-10-06T05:28:58.841Z,63.73
2018-10-06T05:31:27.860Z,68.22
2018-10-06T05:33:57.000Z,65.63
2018-10-06T05:36:26.276Z,64.62
2018-10-06T05:38:55.319Z,64.04
2018-10-06T05:41:24.346Z,63.48
2018-10-06T05:43:53.684Z,63.61
2018-10-06T05:46:23.043Z,63.42
2018-10-06T05:48:52.063Z,68.03
2018-10-06T05:51:21.065Z,64.38
2018-10-06T05:53:50.080Z,64.90
2018-10-06T05:56:19.096Z,63.32
2018-10-06T05:58:48.123Z,66.40
2018-10-06T06:01:17.141Z,65.31
2018-10-06T06:03:46.564Z,64.88
2018-10-06T06:06:15.576Z,64.18
2018-10-06T06:08:44.622Z,63.60
2018-10-06T06:11:13.603Z,65.32
2018-10-06T06:13:42.815Z,62.72
2018-10-06T06:16:11.881Z,62.71
2018-10-06T06:18:40.901Z,64.06
2018-10-06T06:21:09.954Z,64.29
2018-10-06T06:23:39.220Z,62.62
2018-10-06T06:26:08.251Z,61.71
2018-10-06T06:28:37.295Z,63.42
2018-10-06T06:31:06.727Z,61.74
2018-10-06T06:33:35.728Z,61.85
2018-10-06T06:36:04.735Z,61.18
2018-10-06T06:38:34.227Z,61.13
2018-10-06T06:41:03.275Z,61.10
2018-10-06T06:43:32.313Z,60.64
2018-10-06T06:46:01.370Z,60.63
2018-10-06T06:48:30.739Z,60.79
2018-10-06T06:50:59.828Z,60.38
2018-10-06T06:53:28.863Z,60.44
2018-10-06T06:55:57.916Z,60.44
2018-10-06T06:58:26.924Z,60.04
2018-10-06T07:00:56.260Z,60.04
2018-10-06T07:03:25.288Z,59.98
2018-10-06T07:05:54.282Z,60.40
2018-10-06T07:08:23.431Z,59.88
2018-10-06T07:10:52.753Z,60.00
2018-10-06T07:13:21.746Z,60.78
2018-10-06T07:15:51.076Z,58.75
2018-10-06T07:18:20.095Z,59.30
2018-10-06T07:20:49.204Z,62.45
2018-10-06T07:23:18.298Z,63.13
2018-10-06T07:25:47.306Z,60.90
2018-10-06T07:28:16.303Z,59.20
2018-10-06T07:30:45.882Z,59.84
2018-10-06T07:33:15.137Z,61.77
2018-10-06T07:35:44.459Z,59.72
2018-10-06T07:38:13.628Z,58.88
2018-10-06T07:40:42.639Z,58.15
2018-10-06T07:43:11.691Z,58.06
2018-10-06T07:45:40.940Z,57.86
2018-10-06T07:48:10.213Z,59.90
2018-10-06T07:50:40.257Z,59.90
2018-10-06T07:53:10.628Z,58.47
2018-10-06T07:55:39.704Z,59.19
2018-10-06T07:58:08.725Z,58.13
2018-10-06T08:00:38.943Z,58.54
2018-10-06T08:03:08.062Z,58.09
2018-10-06T08:05:37.363Z,57.92
2018-10-06T08:08:06.729Z,59.13
2018-10-06T08:10:35.979Z,58.00
2018-10-06T08:13:05.007Z,58.40
2018-10-06T08:15:34.005Z,69.89
2018-10-06T08:18:03.094Z,58.97
2018-10-06T08:20:32.104Z,58.41
2018-10-06T08:23:01.139Z,60.91
2018-10-06T08:25:30.247Z,59.95
2018-10-06T08:27:59.381Z,57.28
2018-10-06T08:30:28.961Z,60.03
2018-10-06T08:32:57.972Z,57.88
2018-10-06T08:35:26.992Z,57.85
2018-10-06T08:37:55.997Z,56.31
2018-10-06T08:40:25.153Z,59.39
2018-10-06T08:42:54.390Z,56.46
2018-10-06T08:45:23.346Z,56.13
2018-10-06T08:47:52.698Z,56.83
2018-10-06T08:50:21.976Z,55.98
2018-10-06T08:52:51.271Z,56.01
2018-10-06T08:55:20.468Z,55.77
2018-10-06T08:57:49.755Z,56.35
2018-10-06T09:00:18.894Z,56.01
2018-10-06T09:02:48.421Z,55.69
2018-10-06T09:05:17.455Z,57.92
2018-10-06T09:07:46.992Z,58.34
2018-10-06T09:10:16.122Z,59.49
2018-10-06T09:12:45.143Z,57.08
2018-10-06T09:15:14.251Z,57.13
2018-10-06T09:17:43.314Z,56.16
2018-10-06T09:20:12.334Z,57.55
2018-10-06T09:22:41.380Z,57.24
2018-10-06T09:25:10.431Z,57.63
2018-10-06T09:27:39.648Z,55.81
2018-10-06T09:30:08.739Z,56.75
2018-10-06T09:32:37.786Z,54.99
2018-10-06T09:35:07.319Z,55.12
2018-10-06T09:37:36.498Z,55.66
2018-10-06T09:40:05.734Z,55.91
2018-10-06T09:42:35.140Z,55.13
2018-10-06T09:45:04.424Z,55.57
2018-10-06T09:47:33.647Z,55.08
2018-10-06T09:50:02.833Z,54.60
2018-10-06T09:52:31.982Z,56.07
2018-10-06T09:55:01.172Z,56.29
2018-10-06T09:57:30.582Z,55.11
2018-10-06T09:59:59.792Z,54.88
2018-10-06T10:02:33.970Z,56.41
2018-10-06T10:05:08.284Z,56.87
2018-10-06T10:07:37.506Z,54.29
2018-10-06T10:10:07.242Z,54.01
2018-10-06T10:12:36.486Z,53.70
2018-10-06T10:15:05.401Z,54.06
2018-10-06T10:17:35.025Z,54.10
2018-10-06T10:20:04.106Z,54.45
2018-10-06T10:22:33.376Z,55.27
2018-10-06T10:25:02.726Z,53.52
2018-10-06T10:27:31.761Z,53.87
2018-10-06T10:30:01.189Z,54.09
2018-10-06T10:32:30.407Z,53.14
2018-10-06T10:34:59.771Z,53.29
2018-10-06T10:37:28.855Z,53.57
2018-10-06T10:39:57.947Z,54.57
2018-10-06T10:42:27.037Z,55.07
2018-10-06T10:44:57.163Z,54.17
2018-10-06T10:47:26.974Z,54.75
2018-10-06T10:49:56.699Z,55.53
2018-10-06T10:52:26.155Z,54.97
2018-10-06T10:54:55.156Z,54.56
2018-10-06T10:57:24.770Z,55.32
2018-10-06T10:59:54.739Z,54.33
2018-10-06T11:02:23.675Z,55.54
2018-10-06T11:04:52.941Z,54.89
2018-10-06T11:07:22.200Z,56.27
2018-10-06T11:09:51.763Z,55.10
2018-10-06T11:12:20.922Z,54.72
2018-10-06T11:14:49.929Z,55.17
2018-10-06T11:17:19.067Z,55.54
2018-10-06T11:19:48.269Z,54.77
2018-10-06T11:22:17.458Z,55.62
2018-10-06T11:24:46.470Z,56.27
2018-10-06T11:27:15.504Z,56.24
2018-10-06T11:29:44.553Z,55.51
2018-10-06T11:32:13.575Z,55.57
2018-10-06T11:34:42.895Z,56.25
2018-10-06T11:37:12.271Z,55.94
2018-10-06T11:39:41.275Z,56.48
2018-10-06T11:42:10.285Z,56.01
2018-10-06T11:44:39.336Z,55.38
2018-10-06T11:47:08.861Z,56.41
2018-10-06T11:49:37.922Z,56.06
2018-10-06T11:52:07.494Z,55.58
2018-10-06T11:54:36.584Z,56.37
2018-10-06T11:57:05.680Z,55.92
2018-10-06T11:59:34.708Z,55.42
2018-10-06T12:02:03.720Z,55.05
2018-10-06T12:04:33.031Z,55.02
2018-10-06T12:07:02.749Z,54.13
2018-10-06T12:09:32.013Z,55.11
2018-10-06T12:12:01.054Z,56.00
2018-10-06T12:14:30.366Z,55.14
2018-10-06T12:16:59.387Z,53.73
2018-10-06T12:19:28.424Z,53.92
2018-10-06T12:21:57.578Z,54.90
2018-10-06T12:24:26.603Z,55.63
2018-10-06T12:26:55.651Z,54.74
2018-10-06T12:29:24.686Z,52.99
2018-10-06T12:31:53.961Z,53.72
2018-10-06T12:34:22.978Z,53.74
2018-10-06T12:36:52.291Z,54.70
2018-10-06T12:39:21.743Z,53.22
2018-10-06T12:41:50.762Z,53.88
2018-10-06T12:44:19.847Z,52.93
2018-10-06T12:46:48.900Z,53.75
2018-10-06T12:49:17.954Z,53.00
2018-10-06T12:51:46.982Z,53.60
2018-10-06T12:54:16.363Z,53.14
2018-10-06T12:56:45.619Z,53.36
2018-10-06T12:59:15.530Z,53.60
2018-10-06T13:01:44.663Z,51.51
2018-10-06T13:04:15.096Z,53.00
2018-10-06T13:06:44.430Z,52.34
2018-10-06T13:09:13.930Z,51.10
2018-10-06T13:11:42.993Z,51.95
2018-10-06T13:14:12.546Z,53.21
2018-10-06T13:16:41.818Z,51.74
2018-10-06T13:19:11.162Z,50.52
2018-10-06T13:21:40.221Z,50.92
2018-10-06T13:24:09.199Z,49.98
2018-10-06T13:26:38.463Z,51.90
2018-10-06T13:29:07.465Z,50.83
2018-10-06T13:31:36.650Z,50.97
2018-10-06T13:34:05.653Z,50.76
2018-10-06T13:36:34.667Z,51.07
2018-10-06T13:39:04.261Z,51.00
2018-10-06T13:41:33.460Z,51.26
2018-10-06T13:44:02.524Z,50.46
2018-10-06T13:46:31.717Z,49.79
2018-10-06T13:49:01.110Z,51.97
2018-10-06T13:51:30.130Z,50.27
2018-10-06T13:53:59.422Z,50.61
2018-10-06T13:56:28.558Z,50.82
2018-10-06T13:58:57.569Z,49.58
2018-10-06T14:01:26.568Z,48.70
2018-10-06T14:03:55.763Z,49.42
2018-10-06T14:06:24.893Z,50.56
2018-10-06T14:08:53.900Z,50.86
2018-10-06T14:11:23.030Z,50.33
2018-10-06T14:13:52.023Z,50.45
2018-10-06T14:16:21.054Z,48.74
2018-10-06T14:18:50.272Z,49.93
2018-10-06T14:21:19.405Z,48.13
2018-10-06T14:23:48.424Z,48.25
2018-10-06T14:26:17.653Z,50.57
2018-10-06T14:28:46.696Z,50.10
2018-10-06T14:31:15.734Z,50.70
2018-10-06T14:33:44.731Z,50.89
2018-10-06T14:36:13.769Z,50.22
2018-10-06T14:38:42.989Z,48.82
2018-10-06T14:41:12.088Z,49.59
2018-10-06T14:43:41.454Z,48.06
2018-10-06T14:46:10.453Z,49.37
2018-10-06T14:48:39.651Z,49.21
2018-10-06T14:51:08.778Z,48.94
2018-10-06T14:53:37.756Z,50.25
2018-10-06T14:56:06.956Z,48.26
2018-10-06T14:58:36.018Z,48.19
2018-10-06T15:01:05.169Z,49.08
2018-10-06T15:03:34.357Z,47.96
2018-10-06T15:06:03.442Z,49.14
2018-10-06T15:08:32.716Z,48.52
2018-10-06T15:11:01.737Z,48.35
2018-10-06T15:13:30.795Z,48.25
2018-10-06T15:16:00.041Z,48.28
2018-10-06T15:18:29.177Z,48.08
2018-10-06T15:20:58.227Z,47.50
2018-10-06T15:23:27.684Z,47.20
2018-10-06T15:25:56.991Z,50.50
2018-10-06T15:28:26.476Z,48.64
2018-10-06T15:30:55.916Z,49.72
2018-10-06T15:33:25.345Z,49.39
2018-10-06T15:35:55.032Z,52.76
2018-10-06T15:38:24.276Z,53.17
2018-10-06T15:40:53.272Z,51.99
2018-10-06T15:43:22.739Z,52.12
2018-10-06T15:45:52.017Z,52.87
2018-10-06T15:48:21.261Z,53.75
2018-10-06T15:50:50.493Z,53.10
2018-10-06T15:53:19.718Z,53.48
2018-10-06T15:55:48.836Z,54.64
2018-10-06T15:58:18.119Z,52.10
2018-10-06T16:00:47.165Z,51.52
2018-10-06T16:03:16.264Z,52.14
2018-10-06T16:05:45.395Z,52.96
2018-10-06T16:08:14.789Z,52.07
2018-10-06T16:10:43.965Z,53.99
2018-10-06T16:13:13.031Z,55.20
2018-10-06T16:15:42.052Z,55.17
2018-10-06T16:18:11.265Z,54.38
2018-10-06T16:20:40.582Z,54.76
2018-10-06T16:23:09.726Z,55.60
2018-10-06T16:25:39.023Z,56.02
2018-10-06T16:28:08.153Z,54.53
2018-10-06T16:30:37.560Z,56.03
2018-10-06T16:33:07.221Z,56.36
2018-10-06T16:35:37.126Z,55.52
2018-10-06T16:38:06.249Z,55.84
2018-10-06T16:40:35.367Z,56.36
2018-10-06T16:43:04.460Z,56.58
2018-10-06T16:45:33.783Z,56.66
2018-10-06T16:48:02.855Z,56.46
2018-10-06T16:50:31.972Z,56.12
2018-10-06T16:53:00.997Z,56.43
2018-10-06T16:55:30.038Z,55.48
2018-10-06T16:57:59.055Z,55.85
2018-10-06T17:00:28.121Z,56.34
2018-10-06T17:02:57.086Z,56.99
2018-10-06T17:05:26.154Z,56.49
2018-10-06T17:07:55.240Z,55.58
2018-10-06T17:10:24.372Z,56.18
2018-10-06T17:12:53.460Z,56.29
2018-10-06T17:15:22.598Z,56.28
2018-10-06T17:17:51.639Z,57.13
2018-10-06T17:20:20.767Z,57.52
2018-10-06T17:22:50.086Z,57.95
2018-10-06T17:25:19.103Z,57.50
2018-10-06T17:27:48.149Z,58.11
2018-10-06T17:30:17.386Z,57.58
2018-10-06T17:32:46.406Z,58.10
2018-10-06T17:35:15.444Z,58.92
2018-10-06T17:37:44.481Z,58.20
2018-10-06T17:40:13.494Z,57.51
2018-10-06T17:42:42.502Z,57.37
2018-10-06T17:45:11.565Z,57.86
2018-10-06T17:47:40.679Z,57.78
2018-10-06T17:50:09.867Z,58.27
2018-10-06T17:52:38.878Z,57.85
2018-10-06T17:55:07.982Z,57.76
2018-10-06T17:57:37.261Z,57.74
2018-10-06T18:00:06.719Z,59.02
2018-10-06T18:02:35.855Z,58.91
2018-10-06T18:05:04.895Z,59.57
2018-10-06T18:07:34.120Z,58.81
2018-10-06T18:10:03.082Z,59.48
2018-10-06T18:12:32.349Z,59.35
2018-10-06T18:15:01.380Z,58.87
2018-10-06T18:17:30.491Z,58.77
2018-10-06T18:19:59.548Z,58.23
2018-10-06T18:22:28.801Z,59.84
2018-10-06T18:24:57.906Z,58.18
2018-10-06T18:27:26.901Z,58.90
2018-10-06T18:29:55.971Z,60.04
2018-10-06T18:32:25.275Z,59.13
2018-10-06T18:34:54.590Z,60.38
2018-10-06T18:37:24.169Z,59.25
2018-10-06T18:39:53.376Z,59.36
2018-10-06T18:42:22.415Z,58.88
2018-10-06T18:44:51.411Z,60.12
2018-10-06T18:52:06.331Z,60.36
2018-10-06T18:54:35.368Z,60.44
2018-10-06T18:57:04.414Z,59.72
2018-10-06T18:59:33.380Z,58.90
2018-10-06T19:02:02.421Z,59.34
2018-10-06T19:04:31.486Z,59.54
2018-10-06T19:07:00.994Z,60.03
2018-10-06T19:09:30.646Z,61.20
2018-10-06T19:11:59.737Z,60.38
2018-10-06T19:14:29.666Z,59.99
2018-10-06T19:16:59.341Z,60.31
2018-10-06T19:19:28.791Z,60.06
2018-10-06T19:21:57.938Z,60.38
2018-10-06T19:24:27.523Z,60.62
2018-10-06T19:26:57.723Z,60.24
2018-10-06T19:29:27.256Z,60.81
2018-10-06T19:31:56.861Z,60.33
2018-10-06T19:34:27.035Z,61.16
2018-10-06T19:36:56.857Z,61.86
2018-10-06T19:39:26.460Z,60.30
2018-10-06T19:41:55.699Z,63.25
2018-10-06T19:44:24.905Z,60.45
2018-10-06T19:46:54.189Z,60.52
2018-10-06T19:49:23.287Z,62.53
2018-10-06T19:51:52.613Z,63.82
2018-10-06T19:54:21.930Z,62.24
2018-10-06T19:56:52.751Z,61.24
2018-10-06T19:59:23.061Z,60.64
2018-10-06T20:01:52.197Z,59.72
2018-10-06T20:04:21.370Z,60.13
2018-10-06T20:06:50.658Z,61.71
2018-10-06T20:09:20.067Z,61.51
2018-10-06T20:11:49.499Z,63.04
2018-10-06T20:14:18.809Z,61.76
2018-10-06T20:16:48.599Z,63.00
2018-10-06T20:19:18.409Z,60.23
2018-10-06T20:21:48.947Z,60.38
2018-10-06T20:24:18.074Z,60.37
2018-10-06T20:26:47.311Z,60.36
2018-10-06T20:29:17.952Z,59.88
2018-10-06T20:31:48.404Z,60.19
2018-10-06T20:34:17.570Z,60.75
2018-10-06T20:36:46.648Z,60.27
2018-10-06T20:39:16.931Z,61.25
2018-10-06T20:41:45.978Z,61.30
2018-10-06T20:44:15.774Z,60.12
2018-10-06T20:46:44.776Z,60.58
2018-10-06T20:49:14.481Z,60.41
2018-10-06T20:51:44.153Z,62.41
2018-10-06T20:54:14.287Z,61.22
2018-10-06T20:56:44.701Z,60.66
2018-10-06T20:59:14.709Z,60.79
2018-10-06T21:01:45.078Z,60.48
2018-10-06T21:04:15.177Z,60.08
2018-10-06T21:06:44.309Z,59.64
2018-10-06T21:09:14.841Z,59.58
2018-10-06T21:11:44.933Z,60.43
2018-10-06T21:14:15.497Z,61.11
2018-10-06T21:16:45.298Z,60.07
2018-10-06T21:19:15.556Z,60.24
2018-10-06T21:21:44.599Z,62.65
2018-10-06T21:24:19.285Z,61.08
2018-10-06T21:26:48.865Z,61.02
2018-10-06T21:29:21.101Z,60.79
2018-10-06T21:31:51.918Z,61.89
2018-10-06T21:34:23.738Z,60.84
2018-10-06T21:36:53.637Z,61.21
2018-10-06T21:39:24.668Z,61.32
2018-10-06T21:41:54.712Z,61.58
2018-10-06T21:44:28.629Z,61.25
2018-10-06T21:46:58.561Z,60.83
2018-10-06T21:49:29.645Z,61.21
2018-10-06T21:51:59.310Z,61.46
2018-10-06T21:54:31.746Z,60.40
2018-10-06T21:57:01.600Z,60.82
2018-10-06T21:59:31.014Z,60.48
2018-10-06T22:02:01.429Z,61.77
2018-10-06T22:04:30.699Z,60.87
2018-10-06T22:06:59.928Z,60.76
2018-10-06T22:09:29.454Z,62.28
2018-10-06T22:11:58.839Z,62.33
2018-10-06T22:14:27.878Z,61.88
2018-10-06T22:16:57.154Z,60.73
2018-10-06T22:19:26.402Z,61.06
2018-10-06T22:21:55.428Z,59.97
2018-10-06T22:24:24.465Z,60.17
2018-10-06T22:26:53.482Z,61.43
2018-10-06T22:29:22.561Z,60.71
2018-10-06T22:31:51.685Z,61.52
2018-10-06T22:34:20.937Z,61.74
2018-10-06T22:36:50.197Z,59.86
2018-10-06T22:39:19.257Z,59.32
2018-10-06T22:41:48.459Z,59.22
2018-10-06T22:44:17.570Z,59.38
2018-10-06T22:46:46.860Z,58.73
2018-10-06T22:49:16.358Z,58.50
2018-10-06T22:51:45.621Z,58.47
2018-10-06T22:54:15.701Z,58.85
2018-10-06T22:56:46.886Z,58.87
2018-10-06T22:59:17.092Z,59.68
2018-10-06T23:01:46.671Z,59.06
2018-10-06T23:04:15.964Z,58.88
2018-10-06T23:06:45.195Z,58.82
2018-10-06T23:09:14.500Z,59.43
2018-10-06T23:11:44.591Z,59.21
2018-10-06T23:14:13.879Z,58.44
2018-10-06T23:16:42.975Z,61.26
2018-10-06T23:19:11.971Z,60.94
2018-10-06T23:21:41.598Z,60.26
2018-10-06T23:24:10.829Z,61.52
2018-10-06T23:26:39.875Z,60.80
2018-10-06T23:29:09.032Z,60.11
2018-10-06T23:31:38.447Z,58.68
2018-10-06T23:34:07.699Z,58.98
2018-10-06T23:36:36.957Z,58.96
2018-10-06T23:39:07.618Z,58.67
2018-10-06T23:41:36.801Z,59.60
2018-10-06T23:44:05.910Z,58.56
2018-10-06T23:46:35.271Z,59.62
2018-10-06T23:49:04.414Z,59.92
2018-10-06T23:51:33.499Z,60.37
2018-10-06T23:54:02.619Z,60.25
2018-10-06T23:56:32.118Z,59.60
2018-10-06T23:59:01.378Z,60.46
